Time;durP1;ratioP1;P1;durP2;ratioP2;P2;SDS_P1;SDS_P2;PMS_P1;PMS_P2;Temp;Humidity;BMP_temperature;BMP_pressure;BME280_temperature;BME280_humidity;BME280_pressure;Samples;Min_cycle;Max_cycle;Signal;HPM_P1;HPM_P2
2024/01/07 00:01:20;;;;;;;;;4.00;4.00;;;;;6.98;63.77;101086.38;5099791;28;44970;-81
2024/01/07 00:03:45;;;;;;;;;7.33;5.67;;;;;8.17;63.86;101272.44;5077819;28;44978;-81
2024/01/07 00:06:11;;;;;;;;;3.00;3.00;;;;;7.52;63.30;101143.25;5076882;28;45017;-81
2024/01/07 00:08:36;;;;;;;;;6.00;6.00;;;;;8.06;63.50;101241.50;5094741;28;44895;-79
2024/01/07 00:11:02;;;;;;;;;5.33;5.33;;;;;8.21;63.06;101264.19;5074919;28;44940;-78
2024/01/07 00:13:27;;;;;;;;;6.67;4.33;;;;;8.32;62.49;101273.09;5075010;28;45638;-79
2024/01/07 00:15:53;;;;;;;;;4.00;4.00;;;;;7.61;62.38;101161.94;5060743;28;45365;-78
2024/01/07 00:18:19;;;;;;;;;3.67;2.00;;;;;8.36;62.63;101279.88;5079668;28;45311;-80
2024/01/07 00:20:45;;;;;;;;;5.33;4.00;;;;;8.33;62.04;101277.44;5081775;28;45365;-80
2024/01/07 00:23:10;;;;;;;;;5.00;4.67;;;;;8.32;62.20;101276.59;5087949;28;45371;-78
2024/01/07 00:25:35;;;;;;;;;4.00;3.67;;;;;7.94;62.65;101215.94;5082409;28;45451;-79
2024/01/07 00:28:01;;;;;;;;;5.00;5.00;;;;;8.29;61.73;101286.59;5043189;28;48513;-80
2024/01/07 00:30:26;;;;;;;;;5.00;3.00;;;;;8.04;62.71;101258.47;5073552;28;45501;-79
2024/01/07 00:32:52;;;;;;;;;5.67;4.00;;;;;8.12;62.23;101275.44;5100580;27;45211;-80
2024/01/07 00:35:18;;;;;;;;;5.00;3.67;;;;;7.83;62.32;101247.66;5057142;28;44981;-80
2024/01/07 00:37:43;;;;;;;;;4.33;4.33;;;;;7.79;62.52;101217.91;5073887;28;45670;-78
2024/01/07 00:40:09;;;;;;;;;6.67;4.33;;;;;7.32;62.67;101145.56;5054770;28;45035;-78
2024/01/07 00:42:34;;;;;;;;;5.00;5.00;;;;;8.26;62.62;101286.81;5072393;28;45124;-81
2024/01/07 00:45:00;;;;;;;;;6.00;5.00;;;;;8.09;62.32;101261.59;5071462;28;44895;-79
2024/01/07 00:47:25;;;;;;;;;5.33;4.00;;;;;8.19;62.55;101270.53;5072027;28;45402;-79
2024/01/07 00:49:50;;;;;;;;;6.00;4.00;;;;;8.26;62.20;101281.53;5088474;28;45553;-80
2024/01/07 00:52:16;;;;;;;;;5.00;4.67;;;;;7.09;62.48;101093.53;5095094;27;45146;-79
2024/01/07 00:54:41;;;;;;;;;5.67;4.67;;;;;8.22;62.08;101288.84;5098424;28;45245;-80
2024/01/07 00:57:06;;;;;;;;;4.33;4.00;;;;;7.66;62.08;101190.69;5098494;28;45672;-80
2024/01/07 00:59:32;;;;;;;;;4.00;3.00;;;;;8.15;62.30;101288.47;5100094;28;44972;-80
2024/01/07 01:01:57;;;;;;;;;2.00;2.00;;;;;8.01;62.25;101279.84;5100650;28;44893;-80
2024/01/07 01:04:23;;;;;;;;;4.00;3.33;;;;;7.73;62.11;101259.88;5099735;28;45291;-78
2024/01/07 01:06:48;;;;;;;;;3.00;2.00;;;;;7.99;62.26;101292.34;5098546;28;44918;-79
2024/01/07 01:09:13;;;;;;;;;2.33;2.33;;;;;7.98;62.21;101288.88;5082041;28;45811;-79
2024/01/07 01:11:38;;;;;;;;;4.33;4.00;;;;;7.01;61.93;101131.13;5077657;28;45014;-78
2024/01/07 01:14:04;;;;;;;;;4.00;3.67;;;;;7.95;62.05;101281.16;5080136;28;44986;-79
2024/01/07 01:16:29;;;;;;;;;4.00;2.00;;;;;7.96;62.00;101298.72;5081267;28;45059;-78
2024/01/07 01:18:55;;;;;;;;;5.00;4.00;;;;;7.94;62.29;101285.59;5079334;28;45454;-81
2024/01/07 01:21:20;;;;;;;;;4.00;3.00;;;;;8.00;62.24;101307.28;5078421;28;45133;-78
2024/01/07 01:23:47;;;;;;;;;3.67;3.33;;;;;7.27;61.90;101203.25;5078606;28;45503;-78
2024/01/07 01:26:12;;;;;;;;;5.67;2.67;;;;;7.61;61.96;101259.84;5077974;28;45233;-78
2024/01/07 01:28:37;;;;;;;;;3.00;3.00;;;;;7.98;61.85;101312.69;5077748;28;45167;-79
2024/01/07 01:31:03;;;;;;;;;4.33;3.00;;;;;7.96;61.56;101308.47;5078538;28;44871;-78
2024/01/07 01:33:28;;;;;;;;;4.00;3.00;;;;;7.87;61.79;101316.16;5084604;28;45006;-80
2024/01/07 01:35:54;;;;;;;;;4.00;2.67;;;;;7.55;61.24;101273.50;5099262;28;45476;-78
2024/01/07 01:38:19;;;;;;;;;5.00;2.00;;;;;7.35;61.67;101247.63;5100082;28;45349;-78
2024/01/07 01:40:51;;;;;;;;;3.67;2.33;;;;;7.26;61.51;101261.53;5099513;28;45064;-78
2024/01/07 01:43:23;;;;;;;;;3.00;3.00;;;;;7.63;62.10;101332.03;5099389;28;44933;-80
2024/01/07 01:45:48;;;;;;;;;5.00;4.00;;;;;7.40;62.07;101301.06;5098201;28;45913;-77
2024/01/07 01:48:14;;;;;;;;;4.33;4.00;;;;;7.60;62.13;101332.22;5099117;28;45153;-78
2024/01/07 01:50:39;;;;;;;;;6.00;3.00;;;;;7.59;62.21;101322.59;5079316;28;45065;-81
2024/01/07 01:53:04;;;;;;;;;6.00;3.00;;;;;7.18;61.97;101262.06;5079222;28;45419;-77
2024/01/07 01:55:30;;;;;;;;;3.00;3.00;;;;;7.50;62.20;101307.38;5096482;28;45653;-79
2024/01/07 01:57:56;;;;;;;;;1.33;1.33;;;;;7.37;61.98;101281.91;5097235;28;45017;-77
2024/01/07 02:00:22;;;;;;;;;1.67;1.67;;;;;7.59;61.42;101327.88;5097429;28;44948;-77
2024/01/07 02:02:47;;;;;;;;;3.00;3.00;;;;;7.62;61.52;101337.44;5096767;28;45126;-79
2024/01/07 02:05:13;;;;;;;;;4.00;3.00;;;;;7.51;61.43;101324.94;5093547;28;45230;-79
2024/01/07 02:07:39;;;;;;;;;4.00;3.00;;;;;7.56;61.93;101328.09;5095173;28;44997;-78
2024/01/07 02:10:04;;;;;;;;;2.00;2.00;;;;;7.72;61.84;101350.81;5095813;28;45526;-78
2024/01/07 02:12:30;;;;;;;;;3.00;3.00;;;;;7.32;61.72;101308.69;5081420;28;45215;-77
2024/01/07 02:14:55;;;;;;;;;1.33;1.33;;;;;7.36;62.00;101318.09;5078466;28;45132;-77
2024/01/07 02:17:21;;;;;;;;;3.67;3.67;;;;;7.27;61.96;101289.69;5079624;28;44898;-78
2024/01/07 02:19:46;;;;;;;;;4.00;3.00;;;;;7.65;61.75;101347.78;5073318;28;45326;-78
2024/01/07 02:22:12;;;;;;;;;4.00;3.00;;;;;7.24;61.54;101290.75;5058997;28;45062;-78
2024/01/07 02:24:37;;;;;;;;;3.33;3.00;;;;;7.58;61.50;101354.44;5077449;28;45555;-78
2024/01/07 02:27:02;;;;;;;;;2.33;2.33;;;;;7.44;61.62;101334.28;5076848;28;45108;-79
2024/01/07 02:29:29;;;;;;;;;2.67;1.67;;;;;7.46;61.32;101342.97;5077859;28;45033;-79
2024/01/07 02:31:54;;;;;;;;;3.33;2.00;;;;;7.46;61.71;101348.25;5077303;28;45194;-78
2024/01/07 02:34:20;;;;;;;;;2.00;2.00;;;;;7.43;61.90;101351.13;5075696;28;45136;-79
2024/01/07 02:36:45;;;;;;;;;1.33;1.33;;;;;7.43;61.34;101353.78;5074418;28;45025;-77
2024/01/07 02:39:10;;;;;;;;;3.00;1.33;;;;;6.44;61.32;101177.53;5070442;28;45466;-79
2024/01/07 02:41:36;;;;;;;;;2.33;1.67;;;;;7.51;61.54;101351.41;5074663;28;45054;-79
2024/01/07 02:44:01;;;;;;;;;1.33;1.00;;;;;7.44;61.31;101333.44;5057267;28;47090;-80
2024/01/07 02:46:26;;;;;;;;;2.00;2.00;;;;;7.32;60.71;101314.00;5074551;28;45157;-76
2024/01/07 02:48:52;;;;;;;;;1.33;1.33;;;;;7.46;60.95;101329.72;5073237;28;45064;-77
2024/01/07 02:51:17;;;;;;;;;2.00;1.67;;;;;7.63;60.95;101350.53;5072856;28;45170;-78
2024/01/07 02:53:42;;;;;;;;;1.33;0.33;;;;;7.29;60.25;101298.34;5072353;28;44979;-78
2024/01/07 02:56:08;;;;;;;;;2.00;2.00;;;;;7.48;60.47;101330.47;5074251;28;45270;-77
2024/01/07 02:58:34;;;;;;;;;1.33;1.33;;;;;7.60;60.14;101340.16;5083449;28;45304;-79
2024/01/07 03:01:00;;;;;;;;;1.00;1.00;;;;;7.17;60.52;101291.28;5072714;28;44914;-80
2024/01/07 03:03:25;;;;;;;;;1.00;1.00;;;;;7.26;60.44;101312.63;5077650;28;45741;-77
2024/01/07 03:05:51;;;;;;;;;2.33;2.33;;;;;7.17;60.78;101294.75;5074982;28;45022;-80
2024/01/07 03:08:16;;;;;;;;;1.00;1.00;;;;;7.35;60.73;101324.34;5074433;28;45067;-79
2024/01/07 03:10:41;;;;;;;;;2.00;1.00;;;;;7.49;60.15;101345.38;5072215;28;44860;-79
2024/01/07 03:13:07;;;;;;;;;7.00;2.00;;;;;7.60;60.04;101363.13;5070493;28;45156;-77
2024/01/07 03:15:32;;;;;;;;;2.00;2.00;;;;;7.58;60.32;101360.59;5069798;28;45100;-76
2024/01/07 03:17:58;;;;;;;;;0.67;0.67;;;;;7.49;59.70;101363.06;5071265;28;45162;-80
2024/01/07 03:20:23;;;;;;;;;2.00;1.00;;;;;7.37;59.85;101355.97;5071360;28;44915;-77
2024/01/07 03:22:48;;;;;;;;;1.00;1.00;;;;;7.04;59.75;101303.69;5073453;28;45146;-79
2024/01/07 03:25:14;;;;;;;;;2.00;1.00;;;;;6.91;59.80;101295.75;5071729;28;45167;-78
2024/01/07 03:27:39;;;;;;;;;1.67;1.00;;;;;7.24;60.05;101351.56;5071082;28;45353;-78
2024/01/07 03:30:05;;;;;;;;;1.00;1.00;;;;;7.27;60.62;101364.56;5072322;28;45239;-78
2024/01/07 03:32:30;;;;;;;;;1.00;1.00;;;;;7.26;60.05;101368.19;5075265;28;45116;-78
2024/01/07 03:34:56;;;;;;;;;2.33;2.33;;;;;7.20;59.81;101367.75;5071059;28;45291;-77
2024/01/07 03:37:21;;;;;;;;;1.00;1.00;;;;;7.10;60.34;101343.75;5070711;28;45112;-77
2024/01/07 03:39:47;;;;;;;;;1.67;1.00;;;;;6.96;60.01;101325.34;5071134;28;45690;-78
2024/01/07 03:42:13;;;;;;;;;1.00;1.00;;;;;7.21;60.18;101369.47;5070519;28;45751;-77
2024/01/07 03:44:39;;;;;;;;;1.00;1.00;;;;;7.12;59.97;101359.50;5071078;28;45428;-77
2024/01/07 03:47:05;;;;;;;;;1.67;1.00;;;;;6.95;60.25;101332.44;5073021;28;44886;-78
2024/01/07 03:49:31;;;;;;;;;2.00;2.00;;;;;7.10;60.16;101350.84;5072072;28;45228;-76
2024/01/07 03:51:56;;;;;;;;;2.00;2.00;;;;;7.10;60.31;101356.13;5082433;28;45705;-78
2024/01/07 03:54:22;;;;;;;;;1.00;1.00;;;;;7.29;60.12;101375.88;5078209;28;45021;-78
2024/01/07 03:56:47;;;;;;;;;4.00;2.00;;;;;7.11;59.40;101337.50;5084147;28;45188;-79
2024/01/07 03:59:12;;;;;;;;;2.00;2.00;;;;;7.01;59.30;101326.75;5093028;28;45142;-78
2024/01/07 04:01:37;;;;;;;;;5.00;2.00;;;;;7.37;59.40;101377.97;5092543;28;44988;-78
2024/01/07 04:04:03;;;;;;;;;5.33;3.00;;;;;7.41;59.69;101376.84;5092446;28;45030;-78
2024/01/07 04:06:28;;;;;;;;;2.00;1.00;;;;;7.38;58.81;101376.19;5077192;28;44992;-79
2024/01/07 04:08:54;;;;;;;;;2.67;1.00;;;;;7.35;58.74;101379.91;5072000;28;45196;-80
2024/01/07 04:11:19;;;;;;;;;2.67;2.00;;;;;7.29;59.03;101369.75;5072803;28;45892;-79
2024/01/07 04:13:45;;;;;;;;;2.67;1.67;;;;;7.18;59.11;101351.13;5073600;28;45022;-78
2024/01/07 04:16:18;;;;;;;;;2.00;2.00;;;;;7.30;58.61;101379.38;5073170;28;44943;-79
2024/01/07 04:18:43;;;;;;;;;1.33;1.33;;;;;7.16;58.74;101387.41;5073468;28;44968;-79
2024/01/07 04:21:09;;;;;;;;;4.00;2.00;;;;;7.05;59.11;101352.97;5072859;28;45405;-77
2024/01/07 04:23:35;;;;;;;;;2.00;2.00;;;;;6.99;58.96;101331.25;5054568;28;45223;-79
2024/01/07 04:26:00;;;;;;;;;2.67;1.00;;;;;7.33;59.26;101376.50;5072203;28;45402;-79
2024/01/07 04:28:25;;;;;;;;;2.00;2.00;;;;;7.12;59.13;101359.50;5071895;28;45359;-78
2024/01/07 04:30:51;;;;;;;;;1.00;1.00;;;;;6.94;58.82;101329.91;5070713;28;45591;-78
2024/01/07 04:33:16;;;;;;;;;1.33;1.33;;;;;7.31;59.18;101375.78;5070955;28;45242;-78
2024/01/07 04:35:41;;;;;;;;;1.33;1.33;;;;;7.19;58.88;101377.47;5070324;28;45033;-80
2024/01/07 04:38:08;;;;;;;;;1.00;1.00;;;;;6.99;59.01;101341.84;5070792;28;44688;-77
2024/01/07 04:40:33;;;;;;;;;2.67;0.67;;;;;7.25;58.64;101379.72;5071804;28;45498;-79
2024/01/07 04:42:59;;;;;;;;;2.00;2.00;;;;;7.24;59.04;101379.81;5071613;28;45312;-78
2024/01/07 04:45:25;;;;;;;;;1.33;1.33;;;;;7.17;58.86;101366.16;5071098;28;44943;-79
2024/01/07 04:47:50;;;;;;;;;1.33;1.33;;;;;6.85;58.59;101319.97;5069741;28;45285;-78
2024/01/07 04:50:19;;;;;;;;;2.33;2.00;;;;;7.32;58.83;101388.06;5068302;28;45424;-76
2024/01/07 04:52:45;;;;;;;;;2.33;2.00;;;;;7.28;58.83;101402.44;5092517;28;45005;-77
2024/01/07 04:55:13;;;;;;;;;4.00;2.67;;;;;6.90;58.84;101339.84;5092283;28;44972;-77
2024/01/07 04:57:38;;;;;;;;;1.67;1.67;;;;;6.94;58.61;101345.75;5093329;28;45195;-77
2024/01/07 05:00:04;;;;;;;;;2.00;1.00;;;;;7.31;58.94;101394.28;5092282;28;45913;-76
2024/01/07 05:02:31;;;;;;;;;3.00;1.00;;;;;6.86;58.55;101327.81;5092141;28;45137;-78
2024/01/07 05:04:56;;;;;;;;;1.00;1.00;;;;;7.16;58.84;101374.19;5092465;28;45151;-79
2024/01/07 05:07:22;;;;;;;;;1.00;1.00;;;;;6.76;58.62;101296.81;5093007;28;45222;-78
2024/01/07 05:09:47;;;;;;;;;1.00;1.00;;;;;7.03;58.36;101347.78;5092711;28;45196;-79
2024/01/07 05:12:12;;;;;;;;;1.67;1.67;;;;;7.07;58.67;101335.19;5092721;28;45241;-78
2024/01/07 05:14:38;;;;;;;;;3.00;2.00;;;;;6.96;58.46;101333.28;5092212;28;45417;-77
2024/01/07 05:17:03;;;;;;;;;3.00;2.00;;;;;7.23;58.49;101372.84;5094613;28;45232;-79
2024/01/07 05:19:29;;;;;;;;;2.00;2.00;;;;;7.44;58.57;101415.47;5095734;28;45052;-79
2024/01/07 05:21:55;;;;;;;;;2.00;2.00;;;;;6.88;58.38;101331.19;5093990;28;45284;-79
2024/01/07 05:24:21;;;;;;;;;1.33;1.00;;;;;7.37;58.93;101412.38;5093159;28;45002;-77
2024/01/07 05:26:46;;;;;;;;;3.67;2.67;;;;;7.16;58.88;101382.13;5092633;28;44983;-77
2024/01/07 05:29:12;;;;;;;;;3.00;3.00;;;;;7.26;59.17;101417.59;5091369;28;45864;-79
2024/01/07 05:31:38;;;;;;;;;4.33;3.33;;;;;7.07;59.40;101372.22;5090462;28;45166;-76
2024/01/07 05:34:03;;;;;;;;;2.33;2.33;;;;;7.16;59.16;101393.56;5073122;28;44991;-77
2024/01/07 05:36:29;;;;;;;;;3.67;3.00;;;;;7.20;59.34;101410.91;5092769;28;45052;-78
2024/01/07 05:38:54;;;;;;;;;2.67;2.67;;;;;7.13;59.84;101414.06;5091671;27;44997;-78
2024/01/07 05:41:20;;;;;;;;;4.00;3.00;;;;;6.64;59.97;101348.72;5093751;28;44902;-78
2024/01/07 05:43:46;;;;;;;;;2.67;2.67;;;;;7.12;60.42;101423.81;5093896;28;44930;-77
2024/01/07 05:46:12;;;;;;;;;4.00;3.33;;;;;7.12;60.18;101428.25;5094846;28;45548;-78
2024/01/07 05:48:48;;;;;;;;;5.67;4.00;;;;;7.10;59.87;101427.50;5092613;28;45454;-78
2024/01/07 05:51:14;;;;;;;;;1.00;1.00;;;;;6.63;61.06;101378.72;5074764;28;45195;-80
2024/01/07 05:53:41;;;;;;;;;5.67;5.33;;;;;6.75;60.71;101392.91;5090929;28;45071;-80
2024/01/07 05:56:07;;;;;;;;;4.67;4.00;;;;;6.93;61.17;101428.66;5093079;28;44962;-78
2024/01/07 05:58:32;;;;;;;;;3.00;3.00;;;;;7.03;60.92;101420.97;5091863;28;45527;-79
2024/01/07 06:00:58;;;;;;;;;3.33;3.33;;;;;6.84;60.90;101387.84;5076798;28;45248;-78
2024/01/07 06:03:23;;;;;;;;;5.67;4.00;;;;;6.95;60.92;101400.31;5057281;28;44895;-79
2024/01/07 06:05:49;;;;;;;;;4.00;4.00;;;;;7.06;61.19;101428.69;5075893;28;45139;-79
2024/01/07 06:08:14;;;;;;;;;2.00;2.00;;;;;7.05;60.80;101427.00;5074947;28;45251;-79
2024/01/07 06:10:40;;;;;;;;;2.00;2.00;;;;;7.07;61.24;101419.81;5056455;28;45076;-79
2024/01/07 06:13:05;;;;;;;;;4.00;2.00;;;;;7.18;60.96;101443.69;5074936;28;45122;-79
2024/01/07 06:15:31;;;;;;;;;1.33;1.33;;;;;6.60;60.53;101341.91;5074956;28;45136;-80
2024/01/07 06:17:56;;;;;;;;;2.00;2.00;;;;;7.13;60.71;101419.38;5074530;28;45513;-79
2024/01/07 06:20:22;;;;;;;;;2.00;2.00;;;;;7.26;60.76;101442.22;5074169;28;45152;-79
2024/01/07 06:22:48;;;;;;;;;4.67;3.33;;;;;7.31;60.65;101444.56;5075893;28;45081;-81
2024/01/07 06:25:13;;;;;;;;;4.67;2.00;;;;;7.35;60.74;101453.97;5075404;28;45098;-79
2024/01/07 06:27:39;;;;;;;;;2.00;2.00;;;;;7.24;60.84;101419.50;5074752;28;45596;-79
2024/01/07 06:30:06;;;;;;;;;2.00;2.00;;;;;7.12;60.59;101389.44;5056090;28;45089;-80
2024/01/07 06:32:32;;;;;;;;;2.00;2.00;;;;;7.04;60.18;101375.91;5073931;28;45141;-79
2024/01/07 06:34:58;;;;;;;;;2.00;1.00;;;;;7.30;60.48;101425.19;5073566;28;45165;-80
2024/01/07 06:37:23;;;;;;;;;3.00;3.00;;;;;7.38;60.57;101439.66;5074709;28;45454;-77
2024/01/07 06:39:48;;;;;;;;;3.00;3.00;;;;;7.30;60.59;101424.34;5073602;28;44943;-77
2024/01/07 06:42:14;;;;;;;;;6.00;2.00;;;;;7.39;60.45;101436.06;5071366;28;45178;-79
2024/01/07 06:44:39;;;;;;;;;4.67;2.67;;;;;7.29;61.07;101428.78;5071235;28;45319;-79
2024/01/07 06:47:04;;;;;;;;;2.00;2.00;;;;;7.40;61.30;101445.69;5071765;28;45774;-77
2024/01/07 06:49:30;;;;;;;;;3.33;3.33;;;;;7.35;61.00;101431.94;5071168;28;45311;-78
2024/01/07 06:51:55;;;;;;;;;2.00;2.00;;;;;7.41;61.36;101442.97;5070682;28;45283;-79
2024/01/07 06:54:21;;;;;;;;;3.00;1.67;;;;;6.80;61.00;101354.63;5070840;28;44876;-79
2024/01/07 06:56:46;;;;;;;;;2.33;2.33;;;;;7.38;61.07;101451.09;5072853;28;45724;-80
2024/01/07 06:59:11;;;;;;;;;3.00;2.00;;;;;7.34;61.70;101457.56;5071027;28;45304;-79
2024/01/07 07:01:38;;;;;;;;;2.00;2.00;;;;;7.28;61.85;101453.53;5075231;28;45345;-78
2024/01/07 07:04:04;;;;;;;;;2.00;2.00;;;;;7.22;61.97;101461.91;5073785;28;45731;-82
2024/01/07 07:06:29;;;;;;;;;2.33;1.00;;;;;7.21;62.03;101470.78;5072609;28;45751;-80
2024/01/07 07:08:55;;;;;;;;;0.00;0.00;;;;;6.71;61.38;101384.34;5072050;28;45070;-80
2024/01/07 07:11:20;;;;;;;;;2.00;2.00;;;;;7.07;62.11;101446.25;5072205;28;45055;-77
2024/01/07 07:13:46;;;;;;;;;2.33;2.33;;;;;6.82;61.60;101402.13;5072719;28;45144;-79
2024/01/07 07:16:12;;;;;;;;;6.67;2.67;;;;;6.73;62.03;101395.66;5074161;28;45042;-78
2024/01/07 07:18:37;;;;;;;;;2.67;2.00;;;;;7.15;61.97;101479.13;5077668;28;45066;-79
2024/01/07 07:21:02;;;;;;;;;4.67;2.00;;;;;6.23;61.56;101333.84;5062870;28;45619;-79
2024/01/07 07:23:28;;;;;;;;;5.00;3.67;;;;;7.03;61.79;101487.06;5075714;28;45221;-77
2024/01/07 07:25:53;;;;;;;;;2.00;2.00;;;;;7.01;62.26;101488.00;5074869;28;46947;-78
2024/01/07 07:28:19;;;;;;;;;2.00;2.00;;;;;7.08;62.39;101503.44;5094255;28;44963;-80
2024/01/07 07:30:44;;;;;;;;;2.00;2.00;;;;;7.04;61.78;101494.03;5093889;28;45197;-79
2024/01/07 07:33:09;;;;;;;;;1.00;1.00;;;;;7.06;62.29;101508.84;5075562;28;45205;-81
2024/01/07 07:35:35;;;;;;;;;3.00;2.67;;;;;6.60;61.34;101437.88;5055143;28;46576;-80
2024/01/07 07:38:00;;;;;;;;;3.00;2.00;;;;;6.80;61.80;101467.41;5071099;28;44891;-78
2024/01/07 07:40:26;;;;;;;;;2.67;2.67;;;;;6.70;61.36;101460.13;5071942;28;45246;-78
2024/01/07 07:42:51;;;;;;;;;3.67;2.00;;;;;6.64;61.16;101475.53;5087950;28;44940;-78
2024/01/07 07:45:17;;;;;;;;;2.00;2.00;;;;;6.63;61.52;101487.91;5091611;28;45388;-80
2024/01/07 07:47:44;;;;;;;;;8.00;4.33;;;;;6.65;61.47;101503.66;5091304;28;45230;-79
2024/01/07 07:50:10;;;;;;;;;1.67;1.67;;;;;6.48;61.54;101485.41;5072622;28;45203;-78
2024/01/07 07:52:36;;;;;;;;;3.00;2.67;;;;;6.73;61.54;101504.00;5076657;28;45238;-78
2024/01/07 07:55:02;;;;;;;;;4.00;3.00;;;;;6.54;62.18;101485.84;5070733;28;45607;-78
2024/01/07 07:57:28;;;;;;;;;6.67;3.33;;;;;6.77;61.08;101510.75;5071320;28;45192;-79
2024/01/07 07:59:55;;;;;;;;;6.33;5.33;;;;;6.65;61.16;101501.00;5070920;28;45439;-79
2024/01/07 08:02:20;;;;;;;;;8.33;4.00;;;;;5.70;60.84;101375.09;5080876;28;45123;-77
2024/01/07 08:04:46;;;;;;;;;5.33;3.67;;;;;6.37;60.17;101494.00;5074408;28;45186;-77
2024/01/07 08:07:12;;;;;;;;;13.67;10.00;;;;;6.14;60.59;101461.16;5072995;28;44997;-78
2024/01/07 08:09:37;;;;;;;;;7.00;6.00;;;;;5.38;60.62;101378.88;5054952;28;45235;-78
2024/01/07 08:12:04;;;;;;;;;5.00;5.00;;;;;6.16;60.68;101512.06;5073477;28;45206;-79
2024/01/07 08:14:30;;;;;;;;;5.00;5.00;;;;;5.40;61.24;101401.56;5064337;28;47222;-82
2024/01/07 08:16:55;;;;;;;;;2.67;2.67;;;;;6.31;60.82;101534.88;5093226;28;45138;-78
2024/01/07 08:19:20;;;;;;;;;5.00;5.00;;;;;5.84;60.78;101465.72;5093058;28;45142;-79
2024/01/07 08:21:46;;;;;;;;;9.00;6.00;;;;;6.20;60.43;101529.41;5066895;28;45223;-78
2024/01/07 08:24:11;;;;;;;;;9.00;6.00;;;;;6.24;60.38;101540.66;5098454;27;45298;-77
2024/01/07 08:26:38;;;;;;;;;5.00;5.00;;;;;6.05;61.02;101536.53;5098978;27;45020;-78
2024/01/07 08:29:03;;;;;;;;;8.33;5.33;;;;;6.18;60.51;101541.00;5073541;28;45021;-80
2024/01/07 08:31:28;;;;;;;;;4.00;4.00;;;;;5.86;60.71;101471.75;5074395;28;45318;-80
2024/01/07 08:33:54;;;;;;;;;7.67;6.00;;;;;6.32;59.01;101552.41;5060588;28;45636;-81
2024/01/07 08:36:19;;;;;;;;;6.33;4.00;;;;;5.50;59.94;101444.06;5073770;28;45385;-79
2024/01/07 08:38:45;;;;;;;;;5.00;5.00;;;;;5.50;59.67;101454.59;5090916;28;45206;-79
2024/01/07 08:41:18;;;;;;;;;8.33;5.67;;;;;5.98;60.06;101545.75;5094789;28;44916;-80
2024/01/07 08:43:47;;;;;;;;;4.67;4.00;;;;;5.90;61.20;101557.72;5094313;27;45623;-78
2024/01/07 08:46:13;;;;;;;;;10.67;6.33;;;;;5.67;61.39;101512.47;5071213;28;45184;-77
2024/01/07 08:48:39;;;;;;;;;3.67;3.67;;;;;5.87;60.56;101549.97;5081496;28;45307;-78
2024/01/07 08:51:05;;;;;;;;;9.67;7.33;;;;;5.77;61.71;101553.16;5107066;27;45064;-79
2024/01/07 08:53:31;;;;;;;;;10.00;10.00;;;;;5.46;62.08;101504.06;5075255;27;45950;-78
2024/01/07 08:55:56;;;;;;;;;8.67;5.00;;;;;5.48;61.99;101498.69;5114359;27;45091;-78
2024/01/07 08:58:22;;;;;;;;;10.33;7.33;;;;;5.84;62.07;101563.34;5102067;27;44871;-77
2024/01/07 09:00:47;;;;;;;;;5.00;5.00;;;;;5.64;62.96;101531.13;5092385;27;45226;-80
2024/01/07 09:03:13;;;;;;;;;8.00;7.67;;;;;5.71;62.37;101553.53;5068996;28;46188;-79
2024/01/07 09:05:38;;;;;;;;;5.00;5.00;;;;;5.19;62.13;101468.78;5071723;28;45040;-79
2024/01/07 09:08:07;;;;;;;;;9.67;8.33;;;;;5.83;61.39;101565.16;5070959;28;45044;-79
2024/01/07 09:10:35;;;;;;;;;10.00;9.00;;;;;5.83;61.25;101556.38;5082733;28;45495;-79
2024/01/07 09:13:02;;;;;;;;;10.00;10.00;;;;;5.87;60.74;101579.00;5052590;28;45248;-79
2024/01/07 09:15:27;;;;;;;;;11.33;9.67;;;;;5.87;60.31;101566.66;5093934;28;45393;-77
2024/01/07 09:17:53;;;;;;;;;9.33;4.33;;;;;5.28;59.75;101446.31;5095950;28;45199;-79
2024/01/07 09:20:18;;;;;;;;;11.00;8.00;;;;;5.79;59.60;101567.09;5096765;28;44989;-79
2024/01/07 09:22:43;;;;;;;;;10.67;8.00;;;;;5.89;59.71;101550.72;5079754;28;46313;-79
2024/01/07 09:25:09;;;;;;;;;10.00;10.00;;;;;5.67;59.73;101523.00;5096766;28;44992;-79
2024/01/07 09:27:37;;;;;;;;;4.67;4.00;;;;;5.75;59.59;101533.94;5095724;28;45746;-79
2024/01/07 09:30:03;;;;;;;;;11.33;10.00;;;;;5.95;60.04;101582.88;5095463;28;45268;-79
2024/01/07 09:32:28;;;;;;;;;13.00;10.00;;;;;5.63;60.15;101549.69;5082662;28;45591;-78
2024/01/07 09:34:54;;;;;;;;;12.33;10.00;;;;;5.62;60.32;101545.34;5057762;28;45149;-79
2024/01/07 09:37:20;;;;;;;;;12.33;10.67;;;;;5.66;60.25;101539.78;5075873;28;44978;-80
2024/01/07 09:39:45;;;;;;;;;9.33;7.67;;;;;5.96;60.22;101570.53;5075893;28;45370;-78
2024/01/07 09:42:15;;;;;;;;;8.67;8.67;;;;;6.15;59.28;101568.47;5057006;28;46932;-78
2024/01/07 09:44:42;;;;;;;;;10.67;9.00;;;;;6.23;58.98;101589.97;5075882;28;45063;-82
2024/01/07 09:47:11;;;;;;;;;14.67;11.00;;;;;6.08;59.01;101572.44;5073240;28;44867;-80
2024/01/07 09:49:38;;;;;;;;;14.33;12.33;;;;;6.00;58.12;101558.84;5082461;28;44986;-84
2024/01/07 09:52:04;;;;;;;;;14.33;13.00;;;;;6.09;58.70;101593.47;5097557;28;45472;-78
2024/01/07 09:54:30;;;;;;;;;10.00;7.33;;;;;5.82;58.65;101568.72;5095912;28;45365;-77
2024/01/07 09:57:02;;;;;;;;;11.67;11.67;;;;;4.91;58.18;101398.44;5078302;28;45266;-79
2024/01/07 09:59:29;;;;;;;;;9.67;5.67;;;;;5.22;59.42;101465.16;5073228;28;45310;-80
2024/01/07 10:01:56;;;;;;;;;18.00;14.33;;;;;6.14;58.66;101603.72;5055571;28;46799;-79
2024/01/07 10:04:23;;;;;;;;;14.00;12.33;;;;;5.93;59.38;101568.09;5074744;28;45022;-81
2024/01/07 10:06:49;;;;;;;;;17.67;15.33;;;;;5.61;58.99;101514.63;5057801;28;45688;-82
2024/01/07 10:09:17;;;;;;;;;19.33;15.67;;;;;6.06;59.16;101609.50;5057888;28;45055;-80
2024/01/07 10:11:43;;;;;;;;;12.33;11.00;;;;;6.28;58.56;101609.00;5073343;28;45828;-80
2024/01/07 10:14:08;;;;;;;;;16.33;12.67;;;;;6.31;59.20;101600.03;5073369;28;45109;-79
2024/01/07 10:16:34;;;;;;;;;14.00;14.00;;;;;6.23;58.81;101611.09;5075968;28;45349;-79
2024/01/07 10:18:59;;;;;;;;;14.33;10.00;;;;;5.80;59.03;101552.13;5076428;28;45220;-79
2024/01/07 10:21:25;;;;;;;;;13.00;11.33;;;;;6.25;59.50;101611.84;5073629;28;45117;-78
2024/01/07 10:23:51;;;;;;;;;6.33;3.67;;;;;6.11;58.57;101590.72;5069931;28;45095;-80
2024/01/07 10:26:16;;;;;;;;;12.33;12.00;;;;;6.12;59.77;101616.19;5069159;28;45285;-80
2024/01/07 10:28:43;;;;;;;;;18.33;17.00;;;;;6.10;59.70;101616.28;5094375;28;45094;-79
2024/01/07 10:31:09;;;;;;;;;13.00;11.67;;;;;6.03;59.61;101585.06;5075190;28;47378;-77
2024/01/07 10:33:34;;;;;;;;;11.00;11.00;;;;;6.07;58.54;101560.19;5074071;28;45306;-79
2024/01/07 10:36:05;;;;;;;;;13.33;12.33;;;;;5.91;58.87;101530.38;5073814;28;45401;-78
2024/01/07 10:38:35;;;;;;;;;20.67;16.00;;;;;6.09;58.73;101592.59;5091265;28;45432;-80
2024/01/07 10:41:01;;;;;;;;;13.33;12.00;;;;;6.12;58.44;101618.81;5077856;28;46741;-80
2024/01/07 10:43:30;;;;;;;;;9.00;6.00;;;;;5.76;59.85;101613.94;5087158;28;45255;-78
2024/01/07 10:46:03;;;;;;;;;11.67;11.67;;;;;5.40;60.35;101565.06;5096280;28;45132;-80
2024/01/07 10:48:32;;;;;;;;;13.33;11.00;;;;;5.66;60.03;101602.25;5064022;28;45736;-79
2024/01/07 10:51:00;;;;;;;;;15.33;13.33;;;;;5.97;59.96;101611.81;5049958;28;47086;-78
2024/01/07 10:53:28;;;;;;;;;20.67;18.33;;;;;5.77;59.29;101578.69;5057895;28;44639;-79
2024/01/07 10:56:11;;;;;;;;;13.67;12.67;;;;;5.42;60.52;101539.47;5079699;28;44946;-80
2024/01/07 10:58:38;;;;;;;;;17.33;15.33;;;;;5.98;60.29;101603.81;5080627;28;44974;-80
2024/01/07 11:01:06;;;;;;;;;12.33;12.33;;;;;5.99;59.06;101583.53;5068745;28;47088;-79
2024/01/07 11:03:48;;;;;;;;;22.00;17.00;;;;;6.18;59.30;101607.88;5089260;28;45002;-79
2024/01/07 11:06:28;;;;;;;;;19.00;14.33;;;;;6.21;58.91;101609.50;5094343;28;45128;-81
2024/01/07 11:09:03;;;;;;;;;19.00;16.67;;;;;6.21;59.29;101618.25;5092460;28;45049;-80
2024/01/07 11:11:48;;;;;;;;;19.67;18.67;;;;;5.93;60.57;101620.88;5092992;28;45162;-80
2024/01/07 11:14:42;;;;;;;;;17.33;14.00;;;;;5.90;60.81;101624.56;5092276;28;44938;-80
2024/01/07 11:17:08;;;;;;;;;20.33;17.33;;;;;5.88;60.33;101617.63;5077130;28;45237;-77
2024/01/07 11:19:35;;;;;;;;;25.00;22.00;;;;;6.00;60.57;101619.53;5077007;28;45177;-79
2024/01/07 11:22:29;;;;;;;;;25.00;19.67;;;;;6.12;60.81;101632.00;5095333;28;46163;-81
2024/01/07 11:24:57;;;;;;;;;20.33;19.00;;;;;5.93;61.33;101631.44;5086536;28;45396;-79
2024/01/07 11:27:30;;;;;;;;;25.67;24.67;;;;;5.55;61.17;101576.50;5069852;28;45404;-77